createdAt,value
2022-11-28T00:01:31.454Z,2.90
2022-11-28T00:03:58.475Z,3.30
2022-11-28T00:06:27.210Z,4.05
2022-11-28T00:08:55.212Z,3.13
2022-11-28T00:11:22.408Z,3.25
2022-11-28T00:13:49.970Z,3.22
2022-11-28T00:16:21.511Z,3.10
2022-11-28T00:18:54.135Z,3.30
2022-11-28T00:21:22.248Z,3.53
2022-11-28T00:23:50.152Z,3.40
2022-11-28T00:26:24.257Z,2.92
2022-11-28T00:28:51.953Z,3.15
2022-11-28T00:31:24.371Z,3.50
2022-11-28T00:33:52.219Z,3.22
2022-11-28T00:36:20.353Z,3.65
2022-11-28T00:38:48.320Z,3.35
2022-11-28T00:41:21.431Z,3.50
2022-11-28T00:43:49.844Z,3.95
2022-11-28T00:46:18.526Z,3.75
2022-11-28T00:48:45.968Z,3.40
2022-11-28T00:51:17.570Z,3.72
2022-11-28T00:53:47.929Z,3.85
2022-11-28T00:56:21.344Z,3.90
2022-11-28T00:58:51.360Z,3.67
2022-11-28T01:01:31.958Z,3.92
2022-11-28T01:04:02.714Z,3.80
2022-11-28T01:06:36.594Z,3.95
2022-11-28T01:09:23.882Z,3.08
2022-11-28T01:11:52.761Z,3.90
2022-11-28T01:14:23.156Z,4.13
2022-11-28T01:16:50.663Z,4.00
2022-11-28T01:19:18.328Z,3.97
2022-11-28T01:21:45.827Z,4.72
2022-11-28T01:24:15.064Z,4.05
2022-11-28T01:26:43.181Z,3.85
2022-11-28T01:29:10.774Z,3.70
2022-11-28T01:31:38.560Z,3.60
2022-11-28T01:34:05.970Z,4.07
2022-11-28T01:36:33.262Z,4.00
2022-11-28T01:39:00.623Z,4.57
2022-11-28T01:41:28.807Z,4.55
2022-11-28T01:44:04.528Z,4.90
2022-11-28T01:46:32.947Z,3.92
2022-11-28T01:49:09.964Z,4.20
2022-11-28T01:51:38.047Z,4.53
2022-11-28T01:54:05.895Z,3.78
2022-11-28T01:56:43.582Z,4.28
2022-11-28T01:59:12.437Z,4.45
2022-11-28T02:01:39.989Z,3.55
2022-11-28T02:04:07.774Z,3.85
2022-11-28T02:06:35.670Z,4.10
2022-11-28T02:09:03.247Z,4.18
2022-11-28T02:11:40.019Z,3.22
2022-11-28T02:14:44.191Z,3.25
2022-11-28T02:17:20.656Z,3.67
2022-11-28T02:20:12.126Z,3.70
2022-11-28T02:23:03.905Z,3.35
2022-11-28T02:26:04.000Z,3.15
2022-11-28T02:29:08.536Z,4.38
2022-11-28T02:32:09.186Z,4.03
2022-11-28T02:35:05.110Z,3.60
2022-11-28T02:37:46.782Z,3.33
2022-11-28T02:40:29.260Z,3.92
2022-11-28T02:43:31.589Z,4.20
2022-11-28T02:46:37.941Z,4.55
2022-11-28T02:49:07.691Z,3.90
2022-11-28T02:51:42.260Z,3.90
2022-11-28T02:54:13.637Z,3.33
2022-11-28T02:56:53.460Z,3.80
2022-11-28T02:59:36.252Z,3.72
2022-11-28T03:02:05.431Z,3.63
2022-11-28T03:04:55.561Z,3.38
2022-11-28T03:07:44.187Z,4.13
2022-11-28T03:10:40.237Z,3.50
2022-11-28T03:13:10.175Z,3.83
2022-11-28T03:16:15.147Z,3.58
2022-11-28T03:19:01.262Z,3.35
2022-11-28T03:22:08.038Z,4.15
2022-11-28T03:24:45.949Z,3.53
2022-11-28T03:27:28.003Z,3.58
2022-11-28T03:30:01.119Z,3.78
2022-11-28T03:32:33.790Z,3.60
2022-11-28T03:35:10.774Z,3.00
2022-11-28T03:37:48.582Z,3.30
2022-11-28T03:40:22.338Z,3.20
2022-11-28T03:43:00.616Z,3.33
2022-11-28T03:45:34.626Z,2.65
2022-11-28T03:48:08.608Z,3.20
2022-11-28T03:50:47.102Z,2.92
2022-11-28T03:53:30.768Z,2.85
2022-11-28T03:56:07.465Z,2.88
2022-11-28T03:58:44.489Z,3.38
2022-11-28T04:01:31.806Z,3.42
2022-11-28T04:04:30.729Z,3.08
2022-11-28T04:07:37.786Z,3.05
2022-11-28T04:10:36.821Z,3.20
2022-11-28T04:13:22.734Z,3.28
2022-11-28T04:15:58.588Z,3.33
2022-11-28T04:18:47.039Z,3.20
2022-11-28T04:21:37.860Z,3.20
2022-11-28T04:24:11.632Z,3.20
2022-11-28T04:27:14.706Z,3.38
2022-11-28T04:29:50.241Z,3.42
2022-11-28T04:32:20.206Z,3.05
2022-11-28T04:34:53.849Z,3.45
2022-11-28T04:37:23.388Z,2.92
2022-11-28T04:39:51.375Z,3.25
2022-11-28T04:42:41.456Z,3.53
2022-11-28T04:45:15.566Z,3.03
2022-11-28T04:47:44.959Z,2.90
2022-11-28T04:50:13.532Z,3.33
2022-11-28T04:52:56.692Z,3.38
2022-11-28T04:55:51.513Z,3.45
2022-11-28T04:58:46.699Z,2.88
2022-11-28T05:01:33.133Z,2.90
2022-11-28T05:04:00.639Z,3.30
2022-11-28T05:06:35.846Z,3.35
2022-11-28T05:09:04.700Z,3.92
2022-11-28T05:11:32.300Z,3.30
2022-11-28T05:14:00.366Z,2.88
2022-11-28T05:16:27.830Z,3.33
2022-11-28T05:18:55.323Z,3.63
2022-11-28T05:21:22.769Z,3.63
2022-11-28T05:23:56.211Z,3.22
2022-11-28T05:26:24.074Z,3.50
2022-11-28T05:28:52.621Z,3.88
2022-11-28T05:31:21.538Z,3.50
2022-11-28T05:33:49.635Z,3.58
2022-11-28T05:36:17.587Z,4.03
2022-11-28T05:38:45.162Z,4.40
2022-11-28T05:41:28.455Z,3.25
2022-11-28T05:43:57.996Z,3.95
2022-11-28T05:46:26.448Z,3.85
2022-11-28T05:48:53.738Z,4.05
2022-11-28T05:51:21.174Z,3.83
2022-11-28T05:53:48.582Z,3.53
2022-11-28T05:56:18.288Z,3.60
2022-11-28T05:58:46.065Z,3.53
2022-11-28T06:01:32.010Z,3.40
2022-11-28T06:04:01.039Z,3.50
2022-11-28T06:06:32.029Z,3.25
2022-11-28T06:08:59.514Z,2.97
2022-11-28T06:11:29.774Z,3.17
2022-11-28T06:13:57.098Z,2.50
2022-11-28T06:16:28.884Z,2.30
2022-11-28T06:19:03.275Z,2.60
2022-11-28T06:21:31.969Z,2.70
2022-11-28T06:24:00.254Z,2.70
2022-11-28T06:26:28.638Z,3.28
2022-11-28T06:28:57.064Z,3.03
2022-11-28T06:31:28.398Z,3.20
2022-11-28T06:33:59.407Z,3.03
2022-11-28T06:36:31.106Z,3.65
2022-11-28T06:38:58.662Z,4.30
2022-11-28T06:41:26.111Z,3.38
2022-11-28T06:43:53.410Z,3.65
2022-11-28T06:46:21.850Z,5.32
2022-11-28T06:48:51.523Z,3.42
2022-11-28T06:51:20.000Z,3.77
2022-11-28T06:53:47.501Z,3.65
2022-11-28T06:56:18.408Z,4.03
2022-11-28T06:58:46.277Z,4.17
2022-11-28T07:01:19.734Z,4.18
2022-11-28T07:03:47.454Z,3.97
2022-11-28T07:06:16.746Z,4.10
2022-11-28T07:08:44.150Z,3.88
2022-11-28T07:11:17.065Z,4.22
2022-11-28T07:13:48.208Z,4.97
2022-11-28T07:16:22.321Z,4.13
2022-11-28T07:18:50.054Z,5.30
2022-11-28T07:21:17.642Z,5.07
2022-11-28T07:23:45.358Z,3.92
2022-11-28T07:26:16.046Z,5.20
2022-11-28T07:28:45.546Z,4.63
2022-11-28T07:31:15.366Z,4.65
2022-11-28T07:33:46.445Z,4.53
2022-11-28T07:36:21.219Z,5.13
2022-11-28T07:38:50.936Z,5.07
2022-11-28T07:41:21.313Z,5.38
2022-11-28T07:44:03.133Z,4.50
2022-11-28T07:46:32.194Z,4.82
2022-11-28T07:49:00.167Z,5.50
2022-11-28T07:51:31.978Z,4.70
2022-11-28T07:54:00.319Z,5.03
2022-11-28T07:56:50.098Z,3.85
2022-11-28T07:59:18.027Z,4.82
2022-11-28T08:01:45.373Z,4.07
2022-11-28T08:04:14.780Z,4.40
2022-11-28T08:06:44.250Z,3.63
2022-11-28T08:09:12.187Z,3.72
2022-11-28T08:11:39.655Z,4.50
2022-11-28T08:14:07.203Z,4.55
2022-11-28T08:16:34.947Z,4.90
2022-11-28T08:19:02.850Z,5.50
2022-11-28T08:21:35.414Z,7.15
2022-11-28T08:24:04.213Z,7.60
2022-11-28T08:26:32.698Z,7.47
2022-11-28T08:29:01.754Z,6.95
2022-11-28T08:31:33.214Z,6.38
2022-11-28T08:34:03.048Z,6.90
2022-11-28T08:36:30.416Z,7.25
2022-11-28T08:39:17.085Z,6.97
2022-11-28T08:41:47.719Z,6.45
2022-11-28T08:44:15.471Z,6.63
2022-11-28T08:46:45.350Z,5.88
2022-11-28T08:49:13.107Z,4.97
2022-11-28T08:51:40.411Z,4.78
2022-11-28T08:54:07.875Z,5.57
2022-11-28T08:56:35.576Z,7.90
2022-11-28T08:59:02.934Z,6.00
2022-11-28T09:01:30.917Z,8.13
2022-11-28T09:03:58.352Z,7.72
2022-11-28T09:06:25.897Z,8.48
2022-11-28T09:08:53.928Z,9.00
2022-11-28T09:11:22.921Z,10.02
2022-11-28T09:13:50.423Z,8.70
2022-11-28T09:16:17.926Z,8.23
2022-11-28T09:18:45.330Z,9.07
2022-11-28T09:21:14.923Z,8.57
2022-11-28T09:23:44.156Z,8.02
2022-11-28T09:26:13.409Z,7.95
2022-11-28T09:28:40.914Z,8.98
2022-11-28T09:31:08.506Z,7.80
2022-11-28T09:33:36.299Z,8.13
2022-11-28T09:36:14.953Z,4.55
2022-11-28T09:38:42.487Z,5.50
2022-11-28T09:41:38.174Z,6.38
2022-11-28T09:44:26.898Z,4.28
2022-11-28T09:47:00.591Z,6.22
2022-11-28T09:50:10.763Z,10.18
2022-11-28T09:53:22.920Z,6.75
2022-11-28T09:56:09.432Z,6.47
2022-11-28T09:58:51.998Z,5.35
2022-11-28T10:01:31.661Z,6.53
2022-11-28T10:04:04.333Z,5.75
2022-11-28T10:07:18.721Z,5.45
2022-11-28T10:10:04.059Z,6.28
2022-11-28T10:13:11.982Z,5.72
2022-11-28T10:15:56.181Z,5.45
2022-11-28T10:18:43.841Z,6.63
2022-11-28T10:21:27.351Z,7.32
2022-11-28T10:24:00.608Z,6.95
2022-11-28T10:26:37.245Z,7.75
2022-11-28T10:29:36.370Z,6.55
2022-11-28T10:32:05.394Z,6.63
2022-11-28T10:34:41.788Z,5.45
2022-11-28T10:37:25.567Z,3.95
2022-11-28T10:39:52.907Z,3.22
2022-11-28T10:43:04.193Z,3.50
2022-11-28T10:45:48.961Z,4.25
2022-11-28T10:48:49.701Z,3.67
2022-11-28T10:52:08.095Z,2.92
2022-11-28T10:55:05.088Z,2.92
2022-11-28T10:58:12.835Z,3.10
2022-11-28T11:00:41.190Z,3.10
2022-11-28T11:03:14.038Z,3.22
2022-11-28T11:05:42.414Z,3.25
2022-11-28T11:08:20.889Z,3.50
2022-11-28T11:11:21.730Z,3.30
2022-11-28T11:13:59.455Z,2.88
2022-11-28T11:16:46.323Z,3.00
2022-11-28T11:19:25.520Z,2.92
2022-11-28T11:22:09.240Z,3.17
2022-11-28T11:24:36.196Z,2.55
2022-11-28T11:27:08.041Z,3.47
2022-11-28T11:29:37.819Z,4.15
2022-11-28T11:32:07.223Z,3.13
2022-11-28T11:34:44.270Z,3.00
2022-11-28T11:37:33.960Z,2.63
2022-11-28T11:40:02.331Z,2.70
2022-11-28T11:42:31.925Z,2.80
2022-11-28T11:45:34.480Z,3.17
2022-11-28T11:48:03.706Z,3.13
2022-11-28T11:50:32.843Z,2.90
2022-11-28T11:53:15.123Z,3.00
2022-11-28T11:55:52.370Z,3.35
2022-11-28T11:58:28.026Z,3.25
2022-11-28T12:00:57.524Z,3.47
2022-11-28T12:03:50.195Z,3.58
2022-11-28T12:06:29.243Z,3.50
2022-11-28T12:09:36.568Z,3.40
2022-11-28T12:12:30.737Z,3.40
2022-11-28T12:14:57.828Z,2.83
2022-11-28T12:17:58.871Z,3.08
2022-11-28T12:20:47.940Z,3.15
2022-11-28T12:23:59.120Z,3.08
2022-11-28T12:26:39.842Z,3.75
2022-11-28T12:30:06.604Z,3.15
2022-11-28T12:32:50.448Z,3.33
2022-11-28T12:35:42.242Z,3.03
2022-11-28T12:38:21.202Z,2.70
2022-11-28T12:41:11.988Z,3.83
2022-11-28T12:44:04.984Z,3.17
2022-11-28T12:47:01.054Z,3.25
2022-11-28T12:49:42.891Z,3.22
2022-11-28T12:53:01.084Z,3.05
2022-11-28T12:55:56.601Z,2.90
2022-11-28T12:58:28.341Z,4.00
2022-11-28T13:01:23.525Z,4.53
2022-11-28T13:04:21.806Z,3.58
2022-11-28T13:07:11.787Z,2.85
2022-11-28T13:09:55.245Z,3.08
2022-11-28T13:13:05.833Z,3.70
2022-11-28T13:15:44.375Z,3.33
2022-11-28T13:18:42.140Z,3.95
2022-11-28T13:21:42.046Z,3.33
2022-11-28T13:24:38.250Z,3.17
2022-11-28T13:27:39.467Z,4.00
2022-11-28T13:30:26.751Z,3.78
2022-11-28T13:33:28.785Z,2.97
2022-11-28T13:35:57.165Z,3.47
2022-11-28T13:38:47.182Z,3.55
2022-11-28T13:42:10.116Z,3.78
2022-11-28T13:44:52.911Z,3.25
2022-11-28T13:47:22.850Z,3.55
2022-11-28T13:49:49.971Z,4.05
2022-11-28T13:52:22.975Z,3.50
2022-11-28T13:54:54.867Z,3.50
2022-11-28T13:57:31.362Z,3.22
2022-11-28T14:00:18.971Z,3.50
2022-11-28T14:02:51.656Z,3.58
2022-11-28T14:05:37.014Z,4.50
2022-11-28T14:08:05.904Z,3.60
2022-11-28T14:10:58.396Z,3.60
2022-11-28T14:13:37.646Z,3.20
2022-11-28T14:16:39.307Z,3.72
2022-11-28T14:19:25.111Z,3.50
2022-11-28T14:21:55.651Z,3.75
2022-11-28T14:25:13.311Z,2.97
2022-11-28T14:28:05.292Z,3.42
2022-11-28T14:30:37.815Z,3.38
2022-11-28T14:33:39.477Z,3.45
2022-11-28T14:36:29.491Z,3.40
2022-11-28T14:39:04.187Z,2.70
2022-11-28T14:41:31.754Z,3.58
2022-11-28T14:44:46.042Z,3.40
2022-11-28T14:47:28.226Z,4.07
2022-11-28T14:50:07.862Z,4.38
2022-11-28T14:52:44.476Z,3.55
2022-11-28T14:55:13.210Z,3.90
2022-11-28T14:58:00.107Z,4.18
2022-11-28T15:00:40.823Z,3.25
2022-11-28T15:03:39.069Z,3.67
2022-11-28T15:06:14.716Z,3.58
2022-11-28T15:09:15.551Z,3.90
2022-11-28T15:12:33.121Z,4.35
2022-11-28T15:15:00.640Z,4.35
2022-11-28T15:17:33.929Z,3.90
2022-11-28T15:20:17.300Z,3.63
2022-11-28T15:22:46.538Z,3.45
2022-11-28T15:25:37.102Z,3.80
2022-11-28T15:28:15.426Z,4.72
2022-11-28T15:30:48.688Z,3.80
2022-11-28T15:33:16.112Z,3.60
2022-11-28T15:36:15.071Z,3.63
2022-11-28T15:38:43.206Z,3.33
2022-11-28T15:41:10.859Z,3.72
2022-11-28T15:43:38.794Z,3.10
2022-11-28T15:46:31.592Z,3.53
2022-11-28T15:49:05.527Z,3.33
2022-11-28T15:51:35.628Z,4.60
2022-11-28T15:54:04.652Z,3.83
2022-11-28T15:56:34.817Z,3.92
2022-11-28T15:59:02.261Z,4.25
2022-11-28T16:01:30.684Z,3.45
2022-11-28T16:04:26.648Z,4.22
2022-11-28T16:06:59.408Z,3.90
2022-11-28T16:09:34.902Z,4.53
2022-11-28T16:12:05.424Z,3.90
2022-11-28T16:14:45.914Z,3.60
2022-11-28T16:17:34.391Z,3.42
2022-11-28T16:20:03.645Z,5.90
2022-11-28T16:22:52.243Z,6.35
2022-11-28T16:25:35.831Z,3.75
2022-11-28T16:28:03.316Z,4.13
2022-11-28T16:30:47.841Z,4.63
2022-11-28T16:34:01.461Z,4.13
2022-11-28T16:36:38.059Z,4.50
2022-11-28T16:39:11.942Z,6.53
2022-11-28T16:42:07.789Z,4.53
2022-11-28T16:44:35.510Z,3.47
2022-11-28T16:47:02.923Z,3.85
2022-11-28T16:49:35.624Z,4.55
2022-11-28T16:52:21.263Z,4.75
2022-11-28T16:54:53.735Z,4.65
2022-11-28T16:57:21.593Z,4.07
2022-11-28T16:59:54.439Z,6.40
2022-11-28T17:02:24.890Z,7.18
2022-11-28T17:04:53.342Z,6.38
2022-11-28T17:07:23.700Z,6.70
2022-11-28T17:09:51.375Z,5.15
2022-11-28T17:12:37.053Z,4.75
2022-11-28T17:15:05.276Z,5.05
2022-11-28T17:17:32.792Z,5.53
2022-11-28T17:20:00.378Z,3.95
2022-11-28T17:22:40.960Z,3.83
2022-11-28T17:25:19.038Z,3.30
2022-11-28T17:27:48.082Z,4.05
2022-11-28T17:30:18.885Z,4.85
2022-11-28T17:32:51.830Z,5.40
2022-11-28T17:35:24.240Z,4.93
2022-11-28T17:37:51.736Z,6.40
2022-11-28T17:40:36.435Z,4.93
2022-11-28T17:43:04.583Z,5.13
2022-11-28T17:45:35.065Z,4.57
2022-11-28T17:48:02.781Z,5.45
2022-11-28T17:50:30.561Z,4.47
2022-11-28T17:52:57.772Z,5.30
2022-11-28T17:55:25.169Z,5.90
2022-11-28T17:57:54.092Z,7.22
2022-11-28T18:00:21.549Z,7.65
2022-11-28T18:02:49.013Z,7.38
2022-11-28T18:05:16.133Z,8.15
2022-11-28T18:07:43.145Z,6.13
2022-11-28T18:10:12.439Z,8.75
2022-11-28T18:12:39.984Z,5.75
2022-11-28T18:15:10.409Z,5.43
2022-11-28T18:17:38.373Z,6.22
2022-11-28T18:20:06.571Z,6.50
2022-11-28T18:22:34.094Z,6.78
2022-11-28T18:25:01.852Z,7.65
2022-11-28T18:27:29.557Z,8.55
2022-11-28T18:29:56.463Z,9.60
2022-11-28T18:32:23.945Z,8.48
2022-11-28T18:34:51.398Z,7.18
2022-11-28T18:37:18.884Z,8.25
2022-11-28T18:39:46.230Z,7.60
2022-11-28T18:42:13.502Z,6.32
2022-11-28T18:44:40.816Z,6.13
2022-11-28T18:47:09.314Z,6.13
2022-11-28T18:49:36.873Z,6.15
2022-11-28T18:52:04.216Z,5.95
2022-11-28T18:54:33.104Z,7.57
2022-11-28T18:57:00.859Z,6.60
2022-11-28T18:59:28.824Z,5.40
2022-11-28T19:01:56.427Z,6.70
2022-11-28T19:04:23.911Z,6.00
2022-11-28T19:06:51.297Z,5.75
2022-11-28T19:09:22.425Z,6.07
2022-11-28T19:11:49.742Z,5.20
2022-11-28T19:14:19.594Z,5.70
2022-11-28T19:16:49.408Z,7.65
2022-11-28T19:19:18.262Z,9.63
2022-11-28T19:21:48.513Z,13.07
2022-11-28T19:24:16.542Z,10.80
2022-11-28T19:26:43.937Z,10.02
2022-11-28T19:29:11.583Z,9.20
2022-11-28T19:31:40.196Z,9.02
2022-11-28T19:34:17.451Z,9.13
2022-11-28T19:36:50.994Z,8.00
2022-11-28T19:39:24.983Z,6.28
2022-11-28T19:41:54.375Z,6.40
2022-11-28T19:44:23.878Z,6.82
2022-11-28T19:46:53.312Z,6.70
2022-11-28T19:49:23.773Z,6.35
2022-11-28T19:51:51.724Z,6.28
2022-11-28T19:54:19.854Z,6.07
2022-11-28T19:56:48.823Z,5.53
2022-11-28T19:59:16.845Z,6.55
2022-11-28T20:01:44.320Z,6.82
2022-11-28T20:04:12.073Z,6.50
2022-11-28T20:06:39.827Z,7.18
2022-11-28T20:09:11.280Z,6.05
2022-11-28T20:11:43.585Z,6.75
2022-11-28T20:14:18.101Z,8.13
2022-11-28T20:16:45.853Z,8.52
2022-11-28T20:19:14.871Z,7.78
2022-11-28T20:21:44.427Z,7.85
2022-11-28T20:24:11.723Z,8.25
2022-11-28T20:26:43.839Z,9.27
2022-11-28T20:29:15.260Z,7.90
2022-11-28T20:31:46.877Z,8.27
2022-11-28T20:34:17.648Z,8.23
2022-11-28T20:36:46.352Z,9.23
2022-11-28T20:39:13.578Z,9.77
2022-11-28T20:41:40.694Z,10.38
2022-11-28T20:44:08.400Z,10.00
2022-11-28T20:46:36.171Z,8.88
2022-11-28T20:49:07.602Z,8.25
2022-11-28T20:51:35.516Z,9.77
2022-11-28T20:54:05.389Z,9.95
2022-11-28T20:56:57.943Z,9.15
2022-11-28T20:59:24.821Z,8.10
2022-11-28T21:01:51.789Z,8.45
2022-11-28T21:04:19.576Z,7.65
2022-11-28T21:06:49.029Z,7.20
2022-11-28T21:09:19.955Z,8.90
2022-11-28T21:11:58.226Z,8.50
2022-11-28T21:14:27.200Z,9.43
2022-11-28T21:16:54.588Z,9.35
2022-11-28T21:19:21.784Z,9.57
2022-11-28T21:21:49.276Z,9.65
2022-11-28T21:24:16.840Z,9.65
2022-11-28T21:26:49.639Z,9.10
2022-11-28T21:29:20.625Z,10.35
2022-11-28T21:31:48.181Z,9.05
2022-11-28T21:34:16.567Z,10.98
2022-11-28T21:36:44.224Z,10.43
2022-11-28T21:39:18.520Z,11.10
2022-11-28T21:41:46.286Z,11.43
2022-11-28T21:44:13.798Z,11.45
2022-11-28T21:46:41.156Z,12.30
2022-11-28T21:49:08.474Z,11.30
2022-11-28T21:51:39.666Z,12.40
2022-11-28T21:54:07.028Z,12.65
2022-11-28T21:56:34.674Z,12.60
2022-11-28T21:59:01.668Z,12.90
2022-11-28T22:01:29.742Z,11.98
2022-11-28T22:04:02.438Z,12.35
2022-11-28T22:06:31.672Z,12.38
2022-11-28T22:09:07.128Z,13.32
2022-11-28T22:11:36.603Z,12.35
2022-11-28T22:14:04.474Z,13.73
2022-11-28T22:16:31.928Z,14.27
2022-11-28T22:19:00.627Z,14.43
2022-11-28T22:21:52.500Z,14.45
2022-11-28T22:24:16.145Z,13.95
2022-11-28T22:26:44.332Z,13.13
2022-11-28T22:29:12.336Z,14.02
2022-11-28T22:31:39.806Z,14.05
2022-11-28T22:34:08.270Z,14.45
2022-11-28T22:36:35.927Z,13.15
2022-11-28T22:39:04.521Z,13.05
2022-11-28T22:41:32.099Z,13.73
2022-11-28T22:44:01.487Z,10.38
2022-11-28T22:46:31.603Z,11.90
2022-11-28T22:49:00.894Z,13.02
2022-11-28T22:51:29.808Z,13.80
2022-11-28T22:54:00.968Z,14.57
2022-11-28T22:56:31.775Z,14.48
2022-11-28T22:58:59.893Z,14.85
2022-11-28T23:01:30.286Z,12.95
2022-11-28T23:03:58.127Z,14.88
2022-11-28T23:06:29.201Z,16.90
2022-11-28T23:08:59.076Z,18.05
2022-11-28T23:11:30.942Z,17.67
2022-11-28T23:13:59.692Z,17.35
2022-11-28T23:16:34.584Z,16.77
2022-11-28T23:19:06.050Z,15.95
2022-11-28T23:21:36.898Z,15.52
2022-11-28T23:24:08.733Z,15.00
2022-11-28T23:26:35.680Z,12.30
2022-11-28T23:29:05.293Z,14.73
2022-11-28T23:31:38.060Z,15.45
2022-11-28T23:34:06.000Z,15.95
2022-11-28T23:36:42.830Z,13.82
2022-11-28T23:39:16.337Z,17.10
2022-11-28T23:41:44.238Z,17.35
2022-11-28T23:44:13.313Z,17.15
2022-11-28T23:46:41.063Z,15.93
2022-11-28T23:49:08.999Z,15.35
2022-11-28T23:51:36.647Z,17.60
2022-11-28T23:54:04.324Z,17.13
2022-11-28T23:56:34.676Z,16.65
2022-11-28T23:59:06.392Z,15.68
